createdAt,value
2022-12-29T00:00:19.680Z,0
2022-12-29T00:05:16.673Z,0
2022-12-29T00:10:19.573Z,0
2022-12-29T00:15:19.585Z,0
2022-12-29T00:20:16.433Z,0
2022-12-29T00:25:19.571Z,0
2022-12-29T00:30:19.567Z,0
2022-12-29T00:35:19.605Z,0
2022-12-29T00:40:16.599Z,0
2022-12-29T00:45:19.638Z,0
2022-12-29T00:50:16.402Z,0
2022-12-29T00:55:19.660Z,0
2022-12-29T01:00:19.608Z,0
2022-12-29T01:05:16.482Z,0
2022-12-29T01:10:19.620Z,0
2022-12-29T01:15:19.629Z,0
2022-12-29T01:20:19.597Z,0
2022-12-29T01:25:16.617Z,0
2022-12-29T01:30:19.683Z,0
2022-12-29T01:35:19.656Z,0
2022-12-29T01:40:16.472Z,0
2022-12-29T01:45:16.656Z,0
2022-12-29T01:50:16.644Z,0
2022-12-29T01:55:16.700Z,0
2022-12-29T02:00:19.672Z,0
2022-12-29T02:05:19.709Z,0
2022-12-29T02:10:16.700Z,0
2022-12-29T02:15:16.716Z,0
2022-12-29T02:20:19.673Z,0
2022-12-29T02:25:16.662Z,0
2022-12-29T02:30:19.716Z,0
2022-12-29T02:35:19.683Z,0
2022-12-29T02:40:16.682Z,0
2022-12-29T02:45:16.639Z,0
2022-12-29T02:50:19.624Z,0
2022-12-29T02:55:19.670Z,0
2022-12-29T03:00:19.628Z,0
2022-12-29T03:05:16.681Z,0
2022-12-29T03:10:19.743Z,0
2022-12-29T03:15:19.789Z,0
2022-12-29T03:20:19.683Z,0
2022-12-29T03:25:16.751Z,0
2022-12-29T03:30:19.681Z,0
2022-12-29T03:35:19.729Z,0
2022-12-29T03:40:16.693Z,0
2022-12-29T03:45:19.655Z,0
2022-12-29T03:50:19.720Z,0
2022-12-29T03:55:16.767Z,0
2022-12-29T04:00:16.722Z,0
2022-12-29T04:05:19.728Z,0
2022-12-29T04:10:19.640Z,0
2022-12-29T04:15:19.693Z,0
2022-12-29T04:20:16.553Z,0
2022-12-29T04:25:19.773Z,0
2022-12-29T04:30:19.675Z,0
2022-12-29T04:35:16.491Z,0
2022-12-29T04:40:19.760Z,0
2022-12-29T04:45:16.718Z,0
2022-12-29T04:50:16.811Z,0
2022-12-29T04:55:19.879Z,0
2022-12-29T05:00:18.926Z,0
2022-12-29T05:05:18.920Z,0
2022-12-29T05:10:16.014Z,0
2022-12-29T05:15:19.028Z,0
2022-12-29T05:20:18.953Z,0
2022-12-29T05:25:16.016Z,0
2022-12-29T05:30:18.994Z,0
2022-12-29T05:35:19.025Z,0
2022-12-29T05:40:18.990Z,0
2022-12-29T05:45:16.011Z,0
2022-12-29T05:50:19.013Z,0
2022-12-29T05:55:19.065Z,0
2022-12-29T06:00:16.110Z,0
2022-12-29T06:05:19.031Z,0
2022-12-29T06:10:18.978Z,0
2022-12-29T06:15:16.061Z,0
2022-12-29T06:20:19.063Z,0
2022-12-29T06:25:19.002Z,0
2022-12-29T06:30:19.050Z,0
2022-12-29T06:35:16.046Z,0
2022-12-29T06:40:19.129Z,0
2022-12-29T06:45:16.034Z,0
2022-12-29T06:50:16.057Z,0
2022-12-29T06:55:19.134Z,0
2022-12-29T07:00:20.969Z,0
2022-12-29T07:05:19.070Z,0
2022-12-29T07:10:19.073Z,0
2022-12-29T07:15:16.090Z,0
2022-12-29T07:20:24.715Z,0
2022-12-29T07:25:16.031Z,0
2022-12-29T07:30:19.052Z,0
2022-12-29T07:35:19.045Z,0
2022-12-29T07:40:19.035Z,0
2022-12-29T07:45:19.057Z,0
2022-12-29T07:50:19.099Z,0
2022-12-29T07:55:19.017Z,0
2022-12-29T08:00:19.043Z,0
2022-12-29T08:05:16.138Z,0
2022-12-29T08:10:19.012Z,0
2022-12-29T08:15:19.101Z,0
2022-12-29T08:20:19.036Z,0
2022-12-29T08:25:19.076Z,0
2022-12-29T08:30:19.045Z,0
2022-12-29T08:35:16.138Z,0
2022-12-29T08:40:16.157Z,0
2022-12-29T08:45:16.102Z,0
2022-12-29T08:50:16.092Z,0
2022-12-29T08:55:19.146Z,0
2022-12-29T09:00:19.079Z,0
2022-12-29T09:05:19.223Z,0
2022-12-29T09:10:19.082Z,0
2022-12-29T09:15:19.081Z,0
2022-12-29T09:20:19.119Z,0
2022-12-29T09:25:19.087Z,0
2022-12-29T09:30:19.090Z,0
2022-12-29T09:35:19.102Z,0
2022-12-29T09:40:16.160Z,0
2022-12-29T09:45:19.134Z,0
2022-12-29T09:50:19.087Z,0
2022-12-29T09:55:16.169Z,0
2022-12-29T10:00:16.163Z,0
2022-12-29T10:05:19.159Z,0
2022-12-29T10:10:19.154Z,0
2022-12-29T10:15:19.122Z,0
2022-12-29T10:20:16.133Z,0
2022-12-29T10:25:19.135Z,0
2022-12-29T10:30:19.280Z,0
2022-12-29T10:35:19.098Z,0
2022-12-29T10:40:19.133Z,0
2022-12-29T10:45:19.170Z,0
2022-12-29T10:50:19.123Z,0
2022-12-29T10:55:19.149Z,0
2022-12-29T11:00:19.097Z,0
2022-12-29T11:05:16.003Z,0
2022-12-29T11:10:16.112Z,0
2022-12-29T11:15:19.201Z,0
2022-12-29T11:20:16.285Z,0
2022-12-29T11:25:16.241Z,0
2022-12-29T11:30:19.146Z,0
2022-12-29T11:35:19.209Z,0
2022-12-29T11:40:16.311Z,0
2022-12-29T11:45:19.258Z,0
2022-12-29T11:50:19.139Z,0
2022-12-29T11:55:19.111Z,0
2022-12-29T12:00:16.172Z,0
2022-12-29T12:05:16.232Z,0
2022-12-29T12:10:19.173Z,0
2022-12-29T12:15:19.185Z,0
2022-12-29T12:20:19.197Z,4
2022-12-29T12:25:19.147Z,7
2022-12-29T12:30:16.040Z,7
2022-12-29T12:35:21.595Z,9
2022-12-29T12:40:16.250Z,12
2022-12-29T12:45:16.257Z,15
2022-12-29T12:50:19.172Z,23
2022-12-29T12:55:19.229Z,35
2022-12-29T13:00:19.208Z,40
2022-12-29T13:05:18.962Z,37
2022-12-29T13:10:16.252Z,35
2022-12-29T13:15:19.217Z,37
2022-12-29T13:20:19.206Z,47
2022-12-29T13:25:19.245Z,39
2022-12-29T13:30:16.251Z,38
2022-12-29T13:35:19.221Z,43
2022-12-29T13:40:19.212Z,55
2022-12-29T13:45:19.184Z,61
2022-12-29T13:50:19.244Z,57
2022-12-29T13:55:19.232Z,48
2022-12-29T14:00:19.219Z,51
2022-12-29T14:05:16.237Z,63
2022-12-29T14:10:19.252Z,67
2022-12-29T14:15:16.253Z,72
2022-12-29T14:20:19.268Z,83
2022-12-29T14:25:19.284Z,81
2022-12-29T14:30:16.251Z,81
2022-12-29T14:35:19.301Z,86
2022-12-29T14:40:16.331Z,86
2022-12-29T14:45:19.343Z,80
2022-12-29T14:50:19.292Z,79
2022-12-29T14:55:19.268Z,77
2022-12-29T15:00:19.213Z,89
2022-12-29T15:05:19.228Z,154
2022-12-29T15:10:19.204Z,98
2022-12-29T15:15:19.270Z,303
2022-12-29T15:20:19.276Z,324
2022-12-29T15:25:19.237Z,235
2022-12-29T15:30:19.264Z,350
2022-12-29T15:35:16.291Z,322
2022-12-29T15:40:19.236Z,351
2022-12-29T15:45:16.319Z,262
2022-12-29T15:50:16.301Z,198
2022-12-29T15:55:19.330Z,197
2022-12-29T16:00:19.245Z,200
2022-12-29T16:05:18.028Z,380
2022-12-29T16:10:19.280Z,306
2022-12-29T16:15:19.317Z,306
2022-12-29T16:20:19.302Z,203
2022-12-29T16:25:16.280Z,244
2022-12-29T16:30:19.415Z,181
2022-12-29T16:35:19.586Z,331
2022-12-29T16:40:16.290Z,354
2022-12-29T16:45:19.516Z,342
2022-12-29T16:50:16.366Z,263
2022-12-29T16:55:19.419Z,264
2022-12-29T17:00:16.363Z,331
2022-12-29T17:05:16.292Z,207
2022-12-29T17:10:19.322Z,128
2022-12-29T17:15:16.301Z,113
2022-12-29T17:20:19.392Z,156
2022-12-29T17:25:19.368Z,141
2022-12-29T17:30:16.338Z,165
2022-12-29T17:35:19.364Z,136
2022-12-29T17:40:16.349Z,178
2022-12-29T17:45:16.232Z,109
2022-12-29T17:50:16.360Z,136
2022-12-29T17:55:19.389Z,108
2022-12-29T18:00:16.358Z,229
2022-12-29T18:05:19.363Z,369
2022-12-29T18:10:19.363Z,225
2022-12-29T18:15:19.340Z,331
2022-12-29T18:20:16.382Z,293
2022-12-29T18:25:16.195Z,260
2022-12-29T18:30:19.364Z,45
2022-12-29T18:35:19.366Z,86
2022-12-29T18:40:16.349Z,107
2022-12-29T18:45:19.440Z,101
2022-12-29T18:50:19.373Z,129
2022-12-29T18:55:19.356Z,97
2022-12-29T19:00:19.377Z,81
2022-12-29T19:05:16.405Z,96
2022-12-29T19:10:19.365Z,92
2022-12-29T19:15:16.436Z,40
2022-12-29T19:20:19.356Z,26
2022-12-29T19:25:19.389Z,53
2022-12-29T19:30:19.355Z,43
2022-12-29T19:35:19.381Z,54
2022-12-29T19:40:19.387Z,126
2022-12-29T19:45:16.451Z,57
2022-12-29T19:50:19.452Z,136
2022-12-29T19:55:19.463Z,175
2022-12-29T20:00:16.412Z,60
2022-12-29T20:05:19.499Z,45
2022-12-29T20:10:16.411Z,43
2022-12-29T20:15:16.437Z,48
2022-12-29T20:20:16.444Z,47
2022-12-29T20:25:44.107Z,40
2022-12-29T20:30:19.392Z,28
2022-12-29T20:35:19.368Z,24
2022-12-29T20:40:19.386Z,25
2022-12-29T20:45:19.515Z,23
2022-12-29T20:50:19.405Z,30
2022-12-29T20:55:19.388Z,18
2022-12-29T21:00:22.637Z,14
2022-12-29T21:05:24.024Z,13
2022-12-29T21:10:19.396Z,9
2022-12-29T21:15:19.463Z,6
2022-12-29T21:20:19.453Z,2
2022-12-29T21:25:19.389Z,0
2022-12-29T21:30:19.433Z,0
2022-12-29T21:35:19.442Z,0
2022-12-29T21:40:19.419Z,0
2022-12-29T21:45:20.435Z,0
2022-12-29T21:50:19.525Z,0
2022-12-29T21:55:19.495Z,0
2022-12-29T22:00:16.491Z,0
2022-12-29T22:05:19.429Z,0
2022-12-29T22:10:19.468Z,0
2022-12-29T22:15:16.519Z,0
2022-12-29T22:20:16.397Z,0
2022-12-29T22:25:19.516Z,0
2022-12-29T22:30:16.536Z,0
2022-12-29T22:35:16.509Z,0
2022-12-29T22:40:19.471Z,0
2022-12-29T22:45:19.566Z,0
2022-12-29T22:50:19.449Z,0
2022-12-29T22:55:16.522Z,0
2022-12-29T23:00:19.556Z,0
2022-12-29T23:05:19.631Z,0
2022-12-29T23:10:16.532Z,0
2022-12-29T23:15:19.550Z,0
2022-12-29T23:20:19.526Z,0
2022-12-29T23:25:16.541Z,0
2022-12-29T23:30:19.515Z,0
2022-12-29T23:35:16.317Z,0
2022-12-29T23:40:29.516Z,0
2022-12-29T23:45:19.524Z,0
2022-12-29T23:50:16.542Z,0
2022-12-29T23:55:19.469Z,0
